Disclaimer

Please do not use the information listed here in-flight or in-navigation, as they are not provided to us by the airports but are provided by volunteers, so they might be outdated.

Search


Regions


Airport information page

Radio informations:
Tower (TWR) - 126.2 MHz

Airport informations:
Latitude: 42° 53' 25.96" N
Longitude: 143° 09' 30.51" E
Elevation: 281 feet - 86 meters
Operating hours: Remarks
Operating agency: Military
Timezone: UTC+9
Fuel: JP-4, Wide cut turbine fuel MIL Spec T-5624

Runway information:
13/31 - 4920 x 150 feet< - >1500 x 46 meters
13L/31R - 1308 x 75 feet< - >399 x 23 meters

Recent METARs:
RJCT 170537Z 27009G23KT 9999 FEW020 BKN050 M05/M16 Q0995 RMK 2CU020 6CU050 A2940
RJCT 170537Z 27009G23KT 9999 FEW020 BKN050 M05/M16 Q0995 RMK 2CU020 6CU050 A2940
RJCT 170537Z 27009G23KT 9999 FEW020 BKN050 M05/M16 Q0995 RMK 2CU020 6CU050 A2940

Airport on the map: